createdAt,value
2018-12-12T00:01:29.813Z,3.60
2018-12-12T00:04:00.249Z,3.60
2018-12-12T00:06:30.694Z,3.60
2018-12-12T00:08:59.101Z,3.60
2018-12-12T00:11:27.377Z,3.60
2018-12-12T00:13:55.763Z,3.50
2018-12-12T00:16:24.718Z,3.50
2018-12-12T00:18:52.962Z,3.50
2018-12-12T00:21:21.310Z,3.60
2018-12-12T00:23:51.876Z,3.50
2018-12-12T00:26:22.074Z,3.50
2018-12-12T00:28:52.218Z,3.50
2018-12-12T00:31:22.119Z,3.50
2018-12-12T00:33:51.873Z,3.50
2018-12-12T00:36:22.131Z,3.50
2018-12-12T00:38:52.047Z,3.50
2018-12-12T00:41:22.041Z,3.50
2018-12-12T00:43:52.877Z,3.50
2018-12-12T00:46:22.898Z,3.60
2018-12-12T00:48:52.291Z,3.60
2018-12-12T00:51:22.224Z,3.60
2018-12-12T00:53:52.371Z,3.60
2018-12-12T00:56:21.024Z,3.60
2018-12-12T00:58:49.463Z,3.70
2018-12-12T01:01:17.991Z,3.60
2018-12-12T01:03:46.213Z,3.60
2018-12-12T01:06:14.490Z,3.60
2018-12-12T01:08:42.718Z,3.60
2018-12-12T01:11:16.532Z,3.50
2018-12-12T01:13:45.014Z,3.50
2018-12-12T01:16:13.232Z,3.50
2018-12-12T01:18:41.503Z,3.50
2018-12-12T01:21:09.872Z,3.50
2018-12-12T01:23:38.111Z,3.50
2018-12-12T01:26:06.310Z,3.50
2018-12-12T01:28:34.682Z,3.40
2018-12-12T01:31:03.171Z,3.40
2018-12-12T01:33:31.449Z,3.30
2018-12-12T01:35:59.719Z,3.40
2018-12-12T01:38:28.097Z,3.40
2018-12-12T01:40:56.243Z,3.40
2018-12-12T01:43:24.998Z,3.40
2018-12-12T01:45:53.312Z,3.40
2018-12-12T01:48:21.720Z,3.40
2018-12-12T01:50:50.074Z,3.50
2018-12-12T01:53:18.469Z,3.50
2018-12-12T01:55:47.017Z,3.60
2018-12-12T01:58:15.236Z,3.60
2018-12-12T02:00:43.408Z,3.70
2018-12-12T02:03:11.582Z,3.70
2018-12-12T02:05:39.755Z,3.70
2018-12-12T02:08:08.414Z,3.70
2018-12-12T02:10:37.139Z,3.80
2018-12-12T02:13:16.618Z,3.80
2018-12-12T02:15:44.968Z,3.80
2018-12-12T02:18:13.167Z,3.70
2018-12-12T02:20:41.415Z,3.70
2018-12-12T02:23:10.717Z,3.70
2018-12-12T02:25:38.985Z,3.70
2018-12-12T02:28:07.340Z,3.70
2018-12-12T02:30:35.771Z,3.70
2018-12-12T02:33:04.080Z,3.60
2018-12-12T02:35:32.311Z,3.60
2018-12-12T02:38:00.531Z,3.60
2018-12-12T02:40:28.750Z,3.70
2018-12-12T02:42:57.004Z,3.70
2018-12-12T02:45:25.431Z,3.70
2018-12-12T02:47:53.821Z,3.70
2018-12-12T02:50:22.323Z,3.70
2018-12-12T02:52:50.603Z,3.70
2018-12-12T02:55:19.014Z,3.80
2018-12-12T02:57:47.555Z,3.80
2018-12-12T03:00:15.980Z,3.80
2018-12-12T03:02:44.914Z,3.80
2018-12-12T03:05:13.246Z,3.90
2018-12-12T03:07:41.454Z,3.90
2018-12-12T03:10:09.739Z,3.90
2018-12-12T03:12:38.181Z,4.00
2018-12-12T03:15:06.726Z,4.00
2018-12-12T03:17:35.415Z,4.00
2018-12-12T03:20:04.535Z,4.00
2018-12-12T03:22:32.934Z,4.10
2018-12-12T03:25:01.325Z,4.10
2018-12-12T03:27:29.574Z,4.10
2018-12-12T03:29:57.965Z,4.10
2018-12-12T03:32:26.338Z,4.10
2018-12-12T03:34:54.817Z,4.10
2018-12-12T03:37:23.164Z,4.10
2018-12-12T03:39:51.378Z,4.10
2018-12-12T03:42:19.650Z,4.10
2018-12-12T03:44:48.095Z,4.00
2018-12-12T03:47:16.534Z,4.00
2018-12-12T03:49:44.824Z,4.00
2018-12-12T03:52:13.176Z,4.00
2018-12-12T03:54:41.339Z,3.90
2018-12-12T03:57:09.614Z,3.90
2018-12-12T03:59:38.086Z,3.90
2018-12-12T04:02:06.302Z,3.90
2018-12-12T04:04:34.530Z,3.90
2018-12-12T04:07:02.837Z,3.90
2018-12-12T04:09:31.449Z,3.90
2018-12-12T04:11:59.864Z,3.90
2018-12-12T04:14:28.053Z,3.90
2018-12-12T04:16:56.362Z,3.90
2018-12-12T04:19:24.665Z,3.90
2018-12-12T04:21:54.878Z,3.90
2018-12-12T04:24:24.899Z,3.90
2018-12-12T04:26:53.383Z,3.90
2018-12-12T04:29:21.618Z,3.90
2018-12-12T04:31:49.934Z,3.80
2018-12-12T04:34:18.181Z,3.80
2018-12-12T04:36:46.440Z,3.80
2018-12-12T04:39:14.892Z,3.80
2018-12-12T04:41:43.249Z,3.80
2018-12-12T04:44:11.488Z,3.80
2018-12-12T04:46:39.761Z,3.80
2018-12-12T04:49:08.202Z,3.90
2018-12-12T04:51:36.947Z,3.90
2018-12-12T04:54:06.225Z,3.90
2018-12-12T04:56:34.401Z,3.90
2018-12-12T04:59:03.105Z,3.90
2018-12-12T05:01:31.477Z,3.90
2018-12-12T05:03:59.754Z,3.90
2018-12-12T05:06:28.111Z,3.90
2018-12-12T05:08:56.321Z,4.00
2018-12-12T05:11:24.542Z,4.00
2018-12-12T05:13:52.869Z,4.00
2018-12-12T05:16:21.350Z,4.00
2018-12-12T05:18:49.703Z,4.00
2018-12-12T05:21:19.278Z,4.00
2018-12-12T05:23:47.798Z,4.00
2018-12-12T05:26:16.291Z,4.00
2018-12-12T05:28:44.655Z,4.00
2018-12-12T05:31:14.487Z,4.00
2018-12-12T05:33:42.850Z,4.00
2018-12-12T05:36:11.127Z,4.00
2018-12-12T05:38:40.416Z,4.00
2018-12-12T05:41:08.804Z,4.00
2018-12-12T05:43:37.178Z,3.90
2018-12-12T05:46:05.571Z,3.90
2018-12-12T05:48:33.858Z,3.90
2018-12-12T05:51:02.127Z,4.00
2018-12-12T05:53:30.419Z,3.90
2018-12-12T05:56:02.494Z,3.90
2018-12-12T05:58:29.223Z,3.90
2018-12-12T06:00:57.954Z,3.90
2018-12-12T06:03:26.469Z,3.90
2018-12-12T06:05:54.871Z,3.90
2018-12-12T06:08:23.046Z,4.00
2018-12-12T06:10:51.314Z,4.00
2018-12-12T06:13:19.658Z,4.00
2018-12-12T06:15:47.763Z,4.00
2018-12-12T06:18:16.145Z,4.10
2018-12-12T06:20:44.684Z,4.10
2018-12-12T06:23:13.190Z,4.10
2018-12-12T06:25:41.399Z,4.10
2018-12-12T06:28:09.653Z,4.10
2018-12-12T06:30:38.680Z,4.10
2018-12-12T06:33:06.884Z,4.10
2018-12-12T06:35:35.189Z,4.10
2018-12-12T06:38:03.654Z,4.10
2018-12-12T06:40:32.052Z,4.10
2018-12-12T06:43:00.442Z,4.10
2018-12-12T06:45:28.820Z,4.10
2018-12-12T06:47:56.976Z,4.10
2018-12-12T06:50:25.269Z,4.10
2018-12-12T06:52:54.565Z,4.10
2018-12-12T06:55:22.753Z,4.10
2018-12-12T06:57:50.910Z,4.10
2018-12-12T07:00:19.065Z,4.10
2018-12-12T07:02:47.368Z,4.10
2018-12-12T07:05:15.857Z,4.10
2018-12-12T07:07:44.379Z,4.10
2018-12-12T07:10:12.817Z,4.00
2018-12-12T07:12:40.988Z,4.10
2018-12-12T07:15:09.179Z,4.00
2018-12-12T07:17:37.310Z,4.00
2018-12-12T07:20:06.403Z,4.00
2018-12-12T07:22:34.688Z,4.00
2018-12-12T07:25:03.065Z,4.00
2018-12-12T07:27:31.364Z,4.10
2018-12-12T07:29:59.948Z,4.10
2018-12-12T07:32:28.132Z,4.20
2018-12-12T07:34:56.400Z,4.10
2018-12-12T07:37:25.024Z,4.10
2018-12-12T07:39:54.316Z,4.10
2018-12-12T07:42:23.509Z,4.10
2018-12-12T07:45:14.021Z,4.20
2018-12-12T07:47:45.257Z,4.20
2018-12-12T07:50:31.333Z,4.20
2018-12-12T07:53:06.894Z,4.10
2018-12-12T07:55:35.729Z,4.10
2018-12-12T07:58:04.972Z,4.00
2018-12-12T08:00:33.804Z,4.00
2018-12-12T08:03:06.255Z,4.00
2018-12-12T08:05:34.883Z,4.00
2018-12-12T08:08:04.121Z,3.90
2018-12-12T08:10:34.444Z,3.90
2018-12-12T08:13:03.350Z,3.90
2018-12-12T08:15:31.741Z,4.00
2018-12-12T08:18:00.326Z,4.00
2018-12-12T08:20:29.492Z,4.10
2018-12-12T08:22:58.320Z,4.10
2018-12-12T08:25:26.978Z,4.20
2018-12-12T08:27:55.346Z,4.20
2018-12-12T08:30:23.508Z,4.30
2018-12-12T08:32:52.758Z,4.30
2018-12-12T08:35:21.081Z,4.40
2018-12-12T08:37:49.259Z,4.40
2018-12-12T08:40:21.162Z,4.40
2018-12-12T08:42:49.780Z,4.40
2018-12-12T08:45:18.076Z,4.40
2018-12-12T08:47:46.662Z,4.40
2018-12-12T08:50:16.063Z,4.50
2018-12-12T08:52:44.357Z,4.50
2018-12-12T08:55:17.654Z,4.50
2018-12-12T08:57:43.037Z,4.50
2018-12-12T09:00:11.603Z,4.50
2018-12-12T09:02:42.176Z,4.50
2018-12-12T09:05:10.552Z,4.50
2018-12-12T09:07:39.029Z,4.40
2018-12-12T09:10:07.784Z,4.40
2018-12-12T09:12:38.269Z,4.50
2018-12-12T09:15:07.124Z,4.50
2018-12-12T09:17:35.514Z,4.60
2018-12-12T09:20:05.456Z,4.70
2018-12-12T09:22:34.101Z,4.60
2018-12-12T09:25:02.444Z,4.60
2018-12-12T09:27:30.729Z,4.70
2018-12-12T09:30:01.080Z,4.80
2018-12-12T09:32:31.320Z,4.90
2018-12-12T09:35:18.238Z,5.00
2018-12-12T09:37:46.772Z,5.10
2018-12-12T09:40:14.856Z,5.20
2018-12-12T09:42:43.972Z,5.20
2018-12-12T09:45:12.660Z,5.30
2018-12-12T09:47:41.328Z,5.30
2018-12-12T09:50:09.838Z,5.40
2018-12-12T09:52:40.133Z,5.40
2018-12-12T09:55:10.274Z,5.50
2018-12-12T09:57:38.754Z,5.50
2018-12-12T10:00:07.131Z,5.60
2018-12-12T10:02:35.402Z,5.60
2018-12-12T10:05:04.004Z,5.70
2018-12-12T10:07:32.541Z,5.70
2018-12-12T10:10:00.772Z,5.70
2018-12-12T10:12:28.963Z,5.80
2018-12-12T10:14:57.210Z,6.00
2018-12-12T10:17:25.379Z,6.20
2018-12-12T10:19:53.615Z,6.20
2018-12-12T10:22:21.915Z,6.40
2018-12-12T10:24:50.079Z,6.60
2018-12-12T10:27:18.567Z,6.80
2018-12-12T10:29:47.033Z,6.80
2018-12-12T10:32:15.238Z,6.90
2018-12-12T10:34:43.435Z,7.00
2018-12-12T10:37:11.991Z,7.00
2018-12-12T10:39:40.157Z,7.00
2018-12-12T10:42:08.750Z,7.10
2018-12-12T10:44:37.099Z,7.10
2018-12-12T10:47:05.495Z,7.10
2018-12-12T10:49:33.773Z,7.10
2018-12-12T10:52:02.378Z,7.20
2018-12-12T10:54:31.027Z,7.20
2018-12-12T10:56:59.542Z,7.30
2018-12-12T10:59:27.766Z,7.30
2018-12-12T11:02:01.891Z,7.40
2018-12-12T11:04:30.443Z,7.40
2018-12-12T11:06:58.782Z,7.30
2018-12-12T11:09:27.126Z,7.30
2018-12-12T11:11:55.439Z,7.20
2018-12-12T11:14:24.038Z,7.10
2018-12-12T11:16:52.715Z,7.10
2018-12-12T11:19:21.371Z,7.00
2018-12-12T11:21:49.510Z,7.00
2018-12-12T11:24:17.930Z,6.90
2018-12-12T11:26:46.262Z,6.80
2018-12-12T11:29:14.487Z,6.70
2018-12-12T11:31:42.748Z,6.70
2018-12-12T11:34:11.170Z,6.70
2018-12-12T11:36:39.440Z,6.60
2018-12-12T11:39:07.662Z,6.50
2018-12-12T11:41:37.964Z,6.50
2018-12-12T11:44:06.169Z,6.50
2018-12-12T11:46:34.587Z,6.50
2018-12-12T11:49:02.886Z,6.70
2018-12-12T11:51:31.208Z,6.80
2018-12-12T11:53:59.426Z,7.00
2018-12-12T11:56:28.216Z,7.10
2018-12-12T11:58:56.825Z,7.20
2018-12-12T12:01:25.191Z,7.30
2018-12-12T12:03:56.685Z,7.20
2018-12-12T12:06:23.874Z,7.10
2018-12-12T12:08:52.082Z,7.10
2018-12-12T12:11:20.593Z,7.00
2018-12-12T12:13:50.997Z,7.00
2018-12-12T12:16:20.008Z,7.10
2018-12-12T12:18:49.207Z,7.10
2018-12-12T12:21:17.560Z,7.20
2018-12-12T12:23:46.025Z,7.20
2018-12-12T12:26:14.509Z,7.30
2018-12-12T12:28:42.877Z,7.30
2018-12-12T12:31:11.149Z,7.30
2018-12-12T12:33:40.111Z,7.40
2018-12-12T12:36:08.593Z,7.50
2018-12-12T12:38:36.840Z,7.50
2018-12-12T12:41:05.112Z,7.60
2018-12-12T12:43:33.240Z,7.60
2018-12-12T12:46:02.626Z,7.70
2018-12-12T12:48:30.831Z,7.70
2018-12-12T12:50:59.130Z,7.80
2018-12-12T12:53:27.479Z,7.70
2018-12-12T12:55:55.774Z,7.70
2018-12-12T12:58:24.414Z,7.70
2018-12-12T13:00:52.693Z,7.70
2018-12-12T13:03:21.022Z,7.60
2018-12-12T13:05:49.281Z,7.60
2018-12-12T13:08:17.573Z,7.60
2018-12-12T13:10:45.990Z,7.50
2018-12-12T13:13:14.826Z,7.50
2018-12-12T13:15:43.786Z,7.60
2018-12-12T13:18:12.463Z,7.60
2018-12-12T13:20:40.645Z,7.60
2018-12-12T13:23:09.368Z,7.60
2018-12-12T13:25:37.660Z,7.60
2018-12-12T13:28:06.375Z,7.50
2018-12-12T13:30:35.706Z,7.50
2018-12-12T13:33:04.199Z,7.40
2018-12-12T13:35:32.851Z,7.30
2018-12-12T13:38:01.308Z,7.20
2018-12-12T13:40:29.615Z,7.10
2018-12-12T13:42:57.935Z,7.00
2018-12-12T13:45:26.438Z,7.00
2018-12-12T13:47:54.825Z,6.80
2018-12-12T13:50:23.143Z,6.80
2018-12-12T13:52:51.546Z,6.70
2018-12-12T13:55:20.770Z,6.60
2018-12-12T13:57:49.290Z,6.60
2018-12-12T14:00:17.761Z,6.50
2018-12-12T14:02:46.267Z,6.40
2018-12-12T14:05:14.499Z,6.30
2018-12-12T14:07:42.880Z,6.20
2018-12-12T14:10:11.276Z,6.20
2018-12-12T14:12:40.100Z,6.10
2018-12-12T14:15:08.550Z,6.10
2018-12-12T14:17:36.686Z,6.10
2018-12-12T14:20:05.271Z,6.00
2018-12-12T14:22:34.766Z,6.00
2018-12-12T14:25:03.551Z,6.00
2018-12-12T14:27:31.874Z,6.00
2018-12-12T14:30:00.335Z,6.00
2018-12-12T14:32:28.605Z,6.00
2018-12-12T14:34:56.966Z,5.90
2018-12-12T14:37:25.265Z,5.90
2018-12-12T14:39:53.523Z,5.90
2018-12-12T14:42:21.875Z,5.90
2018-12-12T14:44:50.283Z,5.90
2018-12-12T14:47:18.573Z,5.90
2018-12-12T14:49:46.818Z,5.80
2018-12-12T14:52:15.309Z,5.80
2018-12-12T14:54:43.661Z,5.80
2018-12-12T14:57:11.973Z,5.80
2018-12-12T14:59:40.145Z,5.80
2018-12-12T15:02:08.446Z,5.80
2018-12-12T15:04:37.440Z,5.80
2018-12-12T15:07:06.827Z,5.80
2018-12-12T15:09:35.199Z,5.80
2018-12-12T15:12:03.594Z,5.80
2018-12-12T15:14:31.874Z,5.70
2018-12-12T15:17:00.242Z,5.70
2018-12-12T15:19:28.656Z,5.70
2018-12-12T15:21:56.893Z,5.70
2018-12-12T15:24:25.083Z,5.70
2018-12-12T15:26:53.374Z,5.70
2018-12-12T15:29:21.757Z,5.70
2018-12-12T15:31:50.104Z,5.70
2018-12-12T15:34:18.372Z,5.70
2018-12-12T15:36:47.025Z,5.70
2018-12-12T15:39:15.231Z,5.70
2018-12-12T15:41:43.533Z,5.70
2018-12-12T15:44:12.160Z,5.70
2018-12-12T15:46:40.586Z,5.70
2018-12-12T15:49:09.089Z,5.70
2018-12-12T15:51:37.925Z,5.70
2018-12-12T15:54:06.463Z,5.70
2018-12-12T15:56:34.738Z,5.70
2018-12-12T15:59:03.106Z,5.70
2018-12-12T16:01:31.276Z,5.60
2018-12-12T16:03:59.802Z,5.60
2018-12-12T16:06:28.031Z,5.60
2018-12-12T16:08:56.811Z,5.50
2018-12-12T16:11:25.113Z,5.50
2018-12-12T16:13:54.454Z,5.50
2018-12-12T16:16:22.892Z,5.50
2018-12-12T16:18:51.802Z,5.50
2018-12-12T16:21:20.101Z,5.50
2018-12-12T16:23:48.855Z,5.40
2018-12-12T16:26:17.229Z,5.30
2018-12-12T16:28:45.631Z,5.30
2018-12-12T16:31:14.156Z,5.20
2018-12-12T16:33:42.841Z,5.20
2018-12-12T16:36:11.503Z,5.20
2018-12-12T16:38:39.837Z,5.20
2018-12-12T16:41:07.980Z,5.20
2018-12-12T16:43:36.469Z,5.30
2018-12-12T16:46:07.878Z,5.20
2018-12-12T16:48:36.181Z,5.20
2018-12-12T16:51:04.598Z,5.20
2018-12-12T16:53:32.772Z,5.20
2018-12-12T16:56:01.017Z,5.20
2018-12-12T16:58:29.217Z,5.20
2018-12-12T17:00:57.462Z,5.20
2018-12-12T17:03:25.641Z,5.20
2018-12-12T17:05:54.098Z,5.20
2018-12-12T17:08:22.547Z,5.20
2018-12-12T17:10:50.957Z,5.20
2018-12-12T17:13:19.186Z,5.10
2018-12-12T17:15:47.440Z,5.10
2018-12-12T17:18:16.105Z,5.10
2018-12-12T17:20:44.877Z,5.00
2018-12-12T17:23:13.209Z,5.00
2018-12-12T17:25:41.539Z,4.90
2018-12-12T17:28:09.861Z,4.90
2018-12-12T17:30:39.275Z,4.90
2018-12-12T17:33:07.509Z,4.80
2018-12-12T17:35:35.694Z,4.80
2018-12-12T17:38:04.100Z,4.80
2018-12-12T17:40:32.428Z,4.70
2018-12-12T17:43:01.391Z,4.70
2018-12-12T17:45:29.620Z,4.60
2018-12-12T17:47:57.901Z,4.60
2018-12-12T17:50:26.559Z,4.60
2018-12-12T17:52:55.010Z,4.50
2018-12-12T17:55:23.234Z,4.40
2018-12-12T17:57:51.657Z,4.30
2018-12-12T18:00:20.284Z,4.30
2018-12-12T18:02:50.757Z,4.20
2018-12-12T18:05:24.861Z,4.10
2018-12-12T18:07:53.556Z,4.00
2018-12-12T18:10:22.135Z,4.00
2018-12-12T18:12:52.137Z,3.90
2018-12-12T18:15:26.459Z,3.90
2018-12-12T18:18:03.709Z,3.90
2018-12-12T18:20:50.443Z,3.80
2018-12-12T18:27:05.519Z,3.60
2018-12-12T18:29:41.580Z,3.50
2018-12-12T18:32:17.831Z,3.50
2018-12-12T18:35:27.805Z,3.60
2018-12-12T18:38:35.568Z,3.60
2018-12-12T18:41:13.215Z,3.60
2018-12-12T18:43:47.420Z,3.60
2018-12-12T18:46:17.769Z,3.60
2018-12-12T18:48:47.990Z,3.60
2018-12-12T18:51:19.924Z,3.60
2018-12-12T18:53:49.255Z,3.60
2018-12-12T18:56:22.322Z,3.60
2018-12-12T18:58:52.249Z,3.60
2018-12-12T19:01:22.143Z,3.70
2018-12-12T19:03:52.077Z,3.70
2018-12-12T19:06:21.064Z,3.70
2018-12-12T19:08:51.009Z,3.70
2018-12-12T19:11:20.326Z,3.70
2018-12-12T19:13:49.401Z,3.70
2018-12-12T19:16:18.104Z,3.80
2018-12-12T19:18:46.973Z,3.80
2018-12-12T19:21:18.459Z,3.80
2018-12-12T19:23:47.522Z,3.80
2018-12-12T19:26:15.947Z,3.80
2018-12-12T19:28:44.179Z,3.80
2018-12-12T19:31:12.455Z,3.80
2018-12-12T19:33:40.718Z,3.80
2018-12-12T19:36:08.804Z,3.80
2018-12-12T19:38:37.208Z,3.80
2018-12-12T19:41:05.577Z,3.90
2018-12-12T19:43:33.741Z,3.90
2018-12-12T19:46:02.366Z,3.90
2018-12-12T19:48:30.969Z,3.90
2018-12-12T19:50:59.422Z,3.90
2018-12-12T19:53:28.870Z,3.90
2018-12-12T19:55:57.280Z,3.90
2018-12-12T19:58:25.714Z,3.90
2018-12-12T20:00:54.519Z,3.90
2018-12-12T20:03:22.920Z,3.90
2018-12-12T20:05:51.302Z,4.00
2018-12-12T20:08:19.580Z,4.00
2018-12-12T20:10:48.077Z,4.00
2018-12-12T20:13:16.535Z,4.00
2018-12-12T20:15:45.905Z,4.00
2018-12-12T20:18:15.216Z,4.00
2018-12-12T20:20:43.533Z,4.00
2018-12-12T20:23:12.125Z,4.00
2018-12-12T20:25:40.669Z,4.00
2018-12-12T20:28:09.204Z,4.00
2018-12-12T20:30:37.495Z,3.90
2018-12-12T20:33:05.937Z,3.90
2018-12-12T20:35:34.193Z,3.90
2018-12-12T20:38:02.518Z,3.80
2018-12-12T20:40:30.950Z,3.80
2018-12-12T20:42:59.457Z,3.80
2018-12-12T20:45:27.733Z,3.70
2018-12-12T20:47:56.199Z,3.60
2018-12-12T20:50:24.575Z,3.60
2018-12-12T20:52:53.034Z,3.50
2018-12-12T20:55:21.256Z,3.50
2018-12-12T20:57:49.756Z,3.40
2018-12-12T21:00:18.365Z,3.30
2018-12-12T21:02:47.155Z,3.20
2018-12-12T21:05:15.679Z,3.20
2018-12-12T21:07:44.494Z,3.10
2018-12-12T21:10:13.099Z,3.10
2018-12-12T21:12:41.446Z,3.00
2018-12-12T21:15:09.909Z,2.90
2018-12-12T21:17:38.434Z,2.90
2018-12-12T21:20:08.526Z,2.80
2018-12-12T21:22:37.258Z,2.80
2018-12-12T21:25:06.493Z,2.70
2018-12-12T21:27:35.168Z,2.60
2018-12-12T21:30:04.262Z,2.60
2018-12-12T21:32:32.588Z,2.50
2018-12-12T21:35:00.997Z,2.50
2018-12-12T21:37:29.426Z,2.40
2018-12-12T21:39:57.684Z,2.40
2018-12-12T21:42:26.642Z,2.40
2018-12-12T21:44:55.175Z,2.30
2018-12-12T21:47:23.746Z,2.30
2018-12-12T21:49:52.118Z,2.20
2018-12-12T21:52:20.986Z,2.20
2018-12-12T21:54:49.237Z,2.10
2018-12-12T21:57:17.581Z,2.10
2018-12-12T21:59:45.868Z,2.10
2018-12-12T22:02:14.291Z,2.00
2018-12-12T22:04:42.607Z,2.00
2018-12-12T22:07:11.089Z,1.90
2018-12-12T22:09:39.336Z,1.90
2018-12-12T22:12:07.652Z,1.90
2018-12-12T22:14:36.028Z,1.80
2018-12-12T22:17:04.705Z,1.80
2018-12-12T22:19:33.120Z,1.80
2018-12-12T22:22:01.354Z,1.80
2018-12-12T22:24:29.804Z,1.80
2018-12-12T22:26:58.261Z,1.70
2018-12-12T22:29:26.588Z,1.70
2018-12-12T22:31:54.993Z,1.70
2018-12-12T22:34:23.832Z,1.70
2018-12-12T22:36:53.268Z,1.60
2018-12-12T22:39:22.063Z,1.60
2018-12-12T22:41:50.898Z,1.60
2018-12-12T22:44:19.322Z,1.60
2018-12-12T22:46:47.626Z,1.50
2018-12-12T22:49:15.876Z,1.50
2018-12-12T22:51:44.177Z,1.50
2018-12-12T22:54:12.416Z,1.40
2018-12-12T22:56:40.736Z,1.30
2018-12-12T22:59:09.276Z,1.30
2018-12-12T23:01:37.799Z,1.30
2018-12-12T23:04:06.257Z,1.20
2018-12-12T23:06:34.528Z,1.20
2018-12-12T23:09:06.632Z,1.20
2018-12-12T23:11:36.838Z,1.20
2018-12-12T23:14:05.414Z,1.20
2018-12-12T23:16:33.670Z,1.20
2018-12-12T23:19:02.180Z,1.20
2018-12-12T23:21:30.545Z,1.10
2018-12-12T23:23:58.709Z,1.20
2018-12-12T23:26:27.267Z,1.10
2018-12-12T23:28:55.608Z,1.10
2018-12-12T23:31:24.024Z,1.10
2018-12-12T23:33:52.235Z,1.20
2018-12-12T23:36:26.787Z,1.20
2018-12-12T23:38:51.362Z,1.20
2018-12-12T23:41:19.625Z,1.20
2018-12-12T23:43:48.173Z,1.20
2018-12-12T23:46:16.579Z,1.20
2018-12-12T23:48:45.239Z,1.30
2018-12-12T23:51:13.483Z,1.30
2018-12-12T23:53:41.936Z,1.30
2018-12-12T23:56:10.292Z,1.30
2018-12-12T23:58:38.625Z,1.30
